Time;durP1;ratioP1;P1;durP2;ratioP2;P2;SDS_P1;SDS_P2;PMS_P1;PMS_P2;Temp;Humidity;BMP_temperature;BMP_pressure;BME280_temperature;BME280_humidity;BME280_pressure;Samples;Min_cycle;Max_cycle;Signal;HPM_P1;HPM_P2
2023/11/01 00:01:11;;;;;;;4.43;1.43;;;10.20;37.30;;;;;;4994035;28;20191;-69
2023/11/01 00:03:38;;;;;;;2.53;1.40;;;10.30;37.50;;;;;;4994125;28;20181;-69
2023/11/01 00:06:04;;;;;;;3.27;1.50;;;10.30;36.40;;;;;;4993998;28;20685;-69
2023/11/01 00:08:29;;;;;;;5.03;1.23;;;10.30;36.40;;;;;;4993796;28;20431;-69
2023/11/01 00:10:55;;;;;;;2.70;1.30;;;10.30;36.50;;;;;;4994056;28;20439;-70
2023/11/01 00:13:20;;;;;;;3.33;1.53;;;10.30;36.40;;;;;;4994936;28;20180;-69
2023/11/01 00:15:46;;;;;;;3.13;1.40;;;10.40;36.00;;;;;;4993770;28;20250;-69
2023/11/01 00:18:11;;;;;;;3.70;1.43;;;10.30;36.40;;;;;;5009879;28;20638;-68
2023/11/01 00:20:37;;;;;;;2.83;1.83;;;10.30;36.40;;;;;;5009343;28;20200;-70
2023/11/01 00:23:02;;;;;;;2.07;0.70;;;10.30;36.90;;;;;;5009644;28;20179;-69
2023/11/01 00:25:28;;;;;;;4.10;1.70;;;10.30;36.80;;;;;;5008642;28;20187;-69
2023/11/01 00:27:53;;;;;;;4.13;1.43;;;10.30;36.40;;;;;;5008673;28;20187;-68
2023/11/01 00:30:19;;;;;;;2.30;1.30;;;10.30;36.30;;;;;;5008314;28;20223;-69
2023/11/01 00:32:44;;;;;;;2.27;1.30;;;10.20;37.20;;;;;;5008816;28;20629;-69
2023/11/01 00:35:10;;;;;;;4.47;1.33;;;10.10;37.00;;;;;;4993402;28;20192;-69
2023/11/01 00:37:35;;;;;;;2.20;0.90;;;10.00;37.50;;;;;;4993527;28;20183;-69
2023/11/01 00:40:02;;;;;;;2.70;1.20;;;10.00;38.20;;;;;;5008225;28;20292;-69
2023/11/01 00:42:28;;;;;;;2.10;0.90;;;10.00;38.90;;;;;;5008673;28;20177;-70
2023/11/01 00:44:53;;;;;;;3.03;1.53;;;10.00;39.50;;;;;;4993565;28;20535;-69
2023/11/01 00:47:19;;;;;;;3.10;1.10;;;10.00;39.90;;;;;;5008424;28;20422;-69
2023/11/01 00:49:44;;;;;;;2.40;1.17;;;10.00;39.10;;;;;;4993109;28;20211;-69
2023/11/01 00:52:10;;;;;;;3.03;1.20;;;10.00;39.00;;;;;;5008193;28;20172;-68
2023/11/01 00:54:35;;;;;;;4.70;1.37;;;9.90;39.70;;;;;;4993077;28;20553;-69
2023/11/01 00:57:01;;;;;;;3.00;1.57;;;10.00;38.90;;;;;;4993241;28;20187;-69
2023/11/01 00:59:27;;;;;;;4.37;1.93;;;9.90;40.00;;;;;;4992987;28;20285;-69
2023/11/01 01:01:52;;;;;;;2.73;1.07;;;9.90;40.00;;;;;;4992918;28;20420;-69
2023/11/01 01:04:18;;;;;;;2.60;1.40;;;9.90;41.30;;;;;;4993070;28;20176;-69
2023/11/01 01:06:43;;;;;;;3.67;1.60;;;9.90;40.60;;;;;;4993231;28;20646;-69
2023/11/01 01:09:12;;;;;;;4.37;1.20;;;9.90;40.30;;;;;;4992752;28;20597;-69
2023/11/01 01:11:38;;;;;;;3.33;1.00;;;9.80;40.00;;;;;;5050703;23;20231;-70
2023/11/01 01:14:03;;;;;;;4.00;1.13;;;9.80;39.50;;;;;;5012654;28;20935;-71
2023/11/01 01:16:29;;;;;;;2.37;1.20;;;9.80;39.20;;;;;;5013127;28;20506;-71
2023/11/01 01:18:55;;;;;;;2.67;1.50;;;9.70;39.10;;;;;;5012616;28;20438;-70
2023/11/01 01:21:20;;;;;;;3.90;1.57;;;9.70;39.70;;;;;;4996474;28;20525;-70
2023/11/01 01:23:46;;;;;;;2.73;1.40;;;9.70;39.80;;;;;;4992999;28;20180;-71
2023/11/01 01:26:11;;;;;;;5.27;1.27;;;9.70;40.00;;;;;;4992920;28;20257;-71
2023/11/01 01:28:37;;;;;;;3.07;1.30;;;9.70;40.60;;;;;;4992916;28;20184;-70
2023/11/01 01:31:02;;;;;;;3.40;1.30;;;9.60;40.70;;;;;;4992514;28;20196;-70
2023/11/01 01:33:28;;;;;;;7.53;1.17;;;9.60;41.00;;;;;;4991411;28;20199;-70
2023/11/01 01:35:53;;;;;;;5.63;1.07;;;9.60;40.80;;;;;;4992902;28;20573;-70
2023/11/01 01:38:19;;;;;;;2.23;1.10;;;9.50;40.60;;;;;;4992632;28;20187;-70
2023/11/01 01:40:44;;;;;;;2.87;1.27;;;9.50;41.80;;;;;;4992595;28;20200;-70
2023/11/01 01:43:18;;;;;;;2.73;1.00;;;9.40;41.70;;;;;;4992985;28;20176;-70
2023/11/01 01:45:45;;;;;;;3.10;1.50;;;9.40;42.10;;;;;;4991768;28;20181;-70
2023/11/01 01:48:11;;;;;;;6.40;2.00;;;9.40;41.80;;;;;;4993020;28;20442;-71
2023/11/01 01:50:37;;;;;;;2.57;1.30;;;9.40;43.10;;;;;;4992355;28;20446;-70
2023/11/01 01:53:03;;;;;;;6.03;1.37;;;9.30;44.20;;;;;;4992537;28;20415;-70
2023/11/01 01:55:29;;;;;;;6.50;1.20;;;9.20;44.00;;;;;;4992670;28;20506;-70
2023/11/01 01:57:56;;;;;;;4.70;2.20;;;9.20;44.80;;;;;;4992221;28;20185;-70
2023/11/01 02:00:24;;;;;;;2.07;0.77;;;9.10;45.00;;;;;;4992161;28;20283;-70
2023/11/01 02:02:52;;;;;;;3.17;1.40;;;9.10;45.10;;;;;;4992630;28;20415;-70
2023/11/01 02:05:18;;;;;;;2.00;0.93;;;9.10;44.90;;;;;;4992967;28;20509;-70
2023/11/01 02:07:44;;;;;;;3.00;1.07;;;9.20;44.90;;;;;;4992465;28;20499;-70
2023/11/01 02:10:14;;;;;;;2.80;1.00;;;9.20;44.50;;;;;;4991091;28;20570;-71
2023/11/01 02:12:42;;;;;;;2.13;0.83;;;9.20;44.50;;;;;;4992394;28;20422;-70
2023/11/01 02:15:08;;;;;;;2.83;1.40;;;9.30;44.10;;;;;;4992579;28;20461;-70
2023/11/01 02:17:34;;;;;;;3.00;1.47;;;9.20;44.90;;;;;;4992391;28;20502;-70
2023/11/01 02:20:02;;;;;;;1.80;0.90;;;9.20;44.80;;;;;;4992070;28;20454;-70
2023/11/01 02:22:28;;;;;;;3.80;1.33;;;9.20;45.50;;;;;;4991110;28;20220;-69
2023/11/01 02:24:53;;;;;;;2.80;1.30;;;9.20;45.60;;;;;;4992146;28;20470;-70
2023/11/01 02:27:19;;;;;;;5.30;1.93;;;9.20;44.90;;;;;;4992294;28;20188;-70
2023/11/01 02:29:44;;;;;;;8.67;1.50;;;9.20;44.90;;;;;;4990860;28;20206;-70
2023/11/01 02:32:10;;;;;;;3.20;1.63;;;9.20;44.60;;;;;;4991066;28;20561;-69
2023/11/01 02:34:36;;;;;;;3.10;1.23;;;9.20;44.50;;;;;;4990770;28;20256;-70
2023/11/01 02:37:03;;;;;;;2.63;0.90;;;9.30;44.40;;;;;;4990856;28;20434;-69
2023/11/01 02:39:29;;;;;;;2.80;1.00;;;9.30;43.70;;;;;;4992007;28;20176;-69
2023/11/01 02:41:55;;;;;;;2.43;1.03;;;9.30;43.70;;;;;;4991927;28;20415;-72
2023/11/01 02:44:21;;;;;;;2.00;0.90;;;9.30;43.00;;;;;;4992098;28;20437;-69
2023/11/01 02:46:46;;;;;;;2.33;0.80;;;9.30;43.10;;;;;;4992040;28;20211;-70
2023/11/01 02:49:12;;;;;;;3.47;1.40;;;9.40;42.80;;;;;;4991868;28;20419;-70
2023/11/01 02:51:37;;;;;;;6.03;1.03;;;9.40;41.70;;;;;;4991490;28;20202;-70
2023/11/01 02:54:03;;;;;;;3.73;1.47;;;9.50;42.30;;;;;;4990794;28;20184;-70
2023/11/01 02:56:29;;;;;;;6.63;1.53;;;9.50;41.80;;;;;;4992037;28;20631;-70
2023/11/01 02:58:54;;;;;;;2.00;1.00;;;9.50;41.80;;;;;;4991884;28;20218;-69
2023/11/01 03:01:21;;;;;;;5.30;1.77;;;9.50;42.40;;;;;;4991632;28;20431;-70
2023/11/01 03:03:48;;;;;;;4.63;1.20;;;9.50;41.80;;;;;;4991871;28;20172;-71
2023/11/01 03:06:14;;;;;;;2.17;1.30;;;9.60;41.50;;;;;;4992004;28;20420;-68
2023/11/01 03:08:40;;;;;;;3.13;1.40;;;9.60;41.90;;;;;;4991857;28;20479;-69
2023/11/01 03:11:05;;;;;;;3.13;1.30;;;9.70;40.40;;;;;;4993591;28;20216;-70
2023/11/01 03:13:31;;;;;;;4.27;1.00;;;9.60;40.10;;;;;;4995762;28;20184;-69
2023/11/01 03:15:56;;;;;;;2.53;1.10;;;9.70;40.30;;;;;;4993993;28;20216;-70
2023/11/01 03:18:22;;;;;;;5.43;1.10;;;9.70;40.10;;;;;;4995111;28;20169;-70
2023/11/01 03:20:47;;;;;;;3.00;1.10;;;9.70;40.20;;;;;;4994913;28;20185;-70
2023/11/01 03:23:13;;;;;;;4.20;1.13;;;9.70;40.20;;;;;;4995414;28;20251;-70
2023/11/01 03:25:38;;;;;;;2.57;1.20;;;9.60;40.60;;;;;;4995333;28;20212;-69
2023/11/01 03:28:04;;;;;;;2.03;1.10;;;9.70;40.40;;;;;;4995263;28;20191;-70
2023/11/01 03:30:29;;;;;;;2.20;0.97;;;9.70;39.60;;;;;;4994823;28;20196;-70
2023/11/01 03:32:55;;;;;;;3.70;1.30;;;9.70;39.20;;;;;;4993811;28;20267;-70
2023/11/01 03:35:21;;;;;;;3.20;1.00;;;9.60;38.80;;;;;;4994900;28;20227;-69
2023/11/01 03:37:46;;;;;;;3.17;1.50;;;9.60;39.00;;;;;;4993207;28;20188;-69
2023/11/01 03:40:12;;;;;;;4.10;1.37;;;9.60;38.70;;;;;;4994023;28;20226;-70
2023/11/01 03:42:37;;;;;;;5.20;1.20;;;9.50;38.90;;;;;;4994597;28;20181;-70
2023/11/01 03:45:04;;;;;;;2.17;0.97;;;9.40;39.10;;;;;;4994314;28;20176;-69
2023/11/01 03:47:30;;;;;;;3.87;1.20;;;9.40;39.90;;;;;;4994310;28;20196;-70
2023/11/01 03:49:55;;;;;;;3.60;1.17;;;9.30;41.70;;;;;;4993809;28;20442;-70
2023/11/01 03:52:21;;;;;;;3.67;0.83;;;9.30;41.70;;;;;;4994244;28;20218;-70
2023/11/01 03:54:46;;;;;;;4.00;1.50;;;9.20;41.60;;;;;;4994075;28;20204;-70
2023/11/01 03:57:12;;;;;;;3.60;1.27;;;9.10;41.50;;;;;;4993076;28;20187;-70
2023/11/01 03:59:38;;;;;;;4.13;1.10;;;9.00;43.20;;;;;;4994070;28;20172;-70
2023/11/01 04:02:04;;;;;;;4.43;1.10;;;8.90;44.70;;;;;;4994040;28;20535;-70
2023/11/01 04:04:31;;;;;;;2.60;1.03;;;8.80;45.20;;;;;;4994364;28;20812;-70
2023/11/01 04:06:56;;;;;;;2.33;1.03;;;8.80;45.60;;;;;;4994534;28;20555;-70
2023/11/01 04:09:22;;;;;;;1.70;0.77;;;8.80;46.30;;;;;;4994513;28;20506;-71
2023/11/01 04:11:47;;;;;;;4.63;1.40;;;8.70;47.00;;;;;;4992880;28;20317;-71
2023/11/01 04:14:14;;;;;;;3.20;1.20;;;8.70;48.30;;;;;;4992952;28;20212;-71
2023/11/01 04:16:40;;;;;;;2.30;0.87;;;8.60;48.90;;;;;;4992914;28;20234;-69
2023/11/01 04:19:05;;;;;;;1.80;0.80;;;8.60;49.00;;;;;;4994193;28;20485;-70
2023/11/01 04:21:31;;;;;;;2.33;1.10;;;8.50;50.30;;;;;;4993609;28;20202;-70
2023/11/01 04:23:56;;;;;;;2.40;1.10;;;8.50;50.80;;;;;;4993948;28;20176;-70
2023/11/01 04:26:22;;;;;;;3.67;1.20;;;8.50;51.10;;;;;;4994089;28;20263;-70
2023/11/01 04:28:48;;;;;;;2.27;1.03;;;8.40;51.00;;;;;;4993937;28;20180;-70
2023/11/01 04:31:15;;;;;;;2.07;1.47;;;8.40;49.60;;;;;;4993455;28;20311;-69
2023/11/01 04:33:41;;;;;;;2.40;1.00;;;8.50;48.40;;;;;;4992510;28;20258;-70
2023/11/01 04:36:08;;;;;;;3.97;1.00;;;8.60;46.90;;;;;;4993609;28;21069;-69
2023/11/01 04:38:37;;;;;;;3.90;0.90;;;8.60;46.60;;;;;;4992875;28;20191;-68
2023/11/01 04:41:04;;;;;;;1.97;1.00;;;8.60;46.10;;;;;;4993578;28;20434;-70
2023/11/01 04:43:30;;;;;;;1.70;0.73;;;8.60;46.10;;;;;;4993674;28;20434;-70
2023/11/01 04:45:55;;;;;;;4.30;1.20;;;8.60;45.90;;;;;;4993442;28;20737;-69
2023/11/01 04:48:21;;;;;;;3.50;1.17;;;8.70;46.20;;;;;;4993467;28;20898;-69
2023/11/01 04:50:48;;;;;;;4.37;1.37;;;8.60;46.10;;;;;;4993192;28;20298;-70
2023/11/01 04:53:17;;;;;;;2.87;1.10;;;8.60;46.10;;;;;;4993361;28;20430;-70
2023/11/01 04:55:43;;;;;;;2.87;1.20;;;8.60;46.10;;;;;;4993327;28;20470;-71
2023/11/01 04:58:08;;;;;;;2.40;1.17;;;8.60;46.40;;;;;;4993253;28;20420;-70
2023/11/01 05:00:34;;;;;;;2.27;0.90;;;8.60;46.80;;;;;;4992919;28;20564;-70
2023/11/01 05:02:59;;;;;;;2.37;0.90;;;8.60;46.60;;;;;;4993451;28;20207;-70
2023/11/01 05:05:25;;;;;;;2.87;1.03;;;8.50;47.30;;;;;;4991995;28;20229;-70
2023/11/01 05:07:51;;;;;;;2.77;0.90;;;8.60;47.00;;;;;;4993162;28;20190;-70
2023/11/01 05:10:17;;;;;;;2.20;1.20;;;8.50;46.80;;;;;;4992798;28;20219;-71
2023/11/01 05:12:44;;;;;;;3.00;1.00;;;8.60;47.00;;;;;;4993177;28;20423;-70
2023/11/01 05:15:10;;;;;;;3.63;0.90;;;8.50;46.50;;;;;;4993066;28;20463;-70
2023/11/01 05:17:35;;;;;;;2.73;1.63;;;8.50;46.70;;;;;;4992919;28;20510;-71
2023/11/01 05:20:03;;;;;;;2.07;1.23;;;8.50;46.70;;;;;;4992675;28;20187;-70
2023/11/01 05:22:29;;;;;;;2.17;1.17;;;8.50;46.10;;;;;;4993185;28;20537;-70
2023/11/01 05:24:55;;;;;;;7.53;1.20;;;8.50;46.10;;;;;;4993032;28;20425;-71
2023/11/01 05:27:20;;;;;;;2.10;0.80;;;8.50;45.80;;;;;;4993054;28;20183;-70
2023/11/01 05:29:46;;;;;;;2.77;1.10;;;8.60;45.00;;;;;;4992786;28;20207;-70
2023/11/01 05:32:12;;;;;;;2.53;0.97;;;8.60;44.70;;;;;;4992997;28;20260;-70
2023/11/01 05:34:37;;;;;;;2.40;1.20;;;8.60;45.00;;;;;;4992186;28;20516;-70
2023/11/01 05:37:03;;;;;;;3.87;1.33;;;8.70;44.70;;;;;;4992619;28;20186;-70
2023/11/01 05:39:30;;;;;;;2.53;1.23;;;8.70;43.90;;;;;;4992645;28;20172;-70
2023/11/01 05:41:55;;;;;;;2.50;1.10;;;8.70;43.50;;;;;;4992662;28;20172;-70
2023/11/01 05:44:21;;;;;;;4.23;1.53;;;8.60;43.70;;;;;;4991210;28;20431;-70
2023/11/01 05:46:47;;;;;;;2.13;1.13;;;8.50;44.50;;;;;;4992640;28;20208;-70
2023/11/01 05:49:14;;;;;;;2.97;1.13;;;8.50;44.40;;;;;;4992651;28;20182;-71
2023/11/01 05:51:40;;;;;;;4.90;0.90;;;8.50;45.30;;;;;;4992189;28;20442;-70
2023/11/01 05:54:06;;;;;;;3.27;1.00;;;8.40;46.00;;;;;;4992661;28;20500;-70
2023/11/01 05:56:32;;;;;;;3.67;1.17;;;8.40;45.50;;;;;;4992329;28;20175;-70
2023/11/01 05:58:57;;;;;;;3.77;1.43;;;8.40;45.50;;;;;;4990988;28;20547;-70
2023/11/01 06:01:26;;;;;;;3.30;1.00;;;8.40;46.00;;;;;;4990820;28;20454;-70
2023/11/01 06:03:56;;;;;;;2.70;1.30;;;8.30;45.90;;;;;;4992587;28;20556;-70
2023/11/01 06:06:25;;;;;;;3.67;1.83;;;8.30;45.90;;;;;;4992487;28;20870;-70
2023/11/01 06:08:51;;;;;;;3.90;1.37;;;8.30;45.90;;;;;;4992291;28;20410;-70
2023/11/01 06:11:17;;;;;;;5.90;1.50;;;8.40;46.00;;;;;;4991942;28;20454;-70
2023/11/01 06:13:43;;;;;;;3.77;1.40;;;8.40;45.30;;;;;;4992350;28;20522;-69
2023/11/01 06:16:10;;;;;;;2.63;1.10;;;8.40;45.70;;;;;;4992219;28;20545;-70
2023/11/01 06:18:36;;;;;;;2.33;1.03;;;8.40;45.00;;;;;;4992401;28;20450;-70
2023/11/01 06:21:02;;;;;;;3.43;1.43;;;8.50;44.20;;;;;;4992095;28;20843;-70
2023/11/01 06:23:27;;;;;;;2.93;1.90;;;8.50;44.00;;;;;;4992207;28;20172;-70
2023/11/01 06:25:53;;;;;;;3.30;1.53;;;8.60;43.80;;;;;;4992090;28;20183;-70
2023/11/01 06:28:20;;;;;;;2.10;1.37;;;8.60;43.70;;;;;;4992256;28;20191;-70
2023/11/01 06:30:45;;;;;;;2.10;1.10;;;8.70;42.90;;;;;;4992084;28;20202;-69
2023/11/01 06:33:11;;;;;;;2.87;1.43;;;8.80;42.00;;;;;;4992078;28;20889;-69
2023/11/01 06:35:37;;;;;;;2.57;1.20;;;8.80;41.20;;;;;;4991888;28;20454;-69
2023/11/01 06:38:03;;;;;;;2.17;0.90;;;8.90;40.30;;;;;;4992082;28;20176;-69
2023/11/01 06:40:29;;;;;;;5.00;1.67;;;9.00;39.40;;;;;;4991463;28;20526;-69
2023/11/01 06:42:54;;;;;;;4.27;2.17;;;9.10;38.80;;;;;;4992180;28;20610;-68
2023/11/01 06:45:21;;;;;;;3.80;1.50;;;9.20;37.90;;;;;;4994607;28;20415;-70
2023/11/01 06:47:47;;;;;;;5.80;1.03;;;9.30;36.90;;;;;;4995974;28;20615;-70
2023/11/01 06:50:12;;;;;;;1.90;0.90;;;9.40;36.60;;;;;;4995358;28;20521;-70
2023/11/01 06:52:43;;;;;;;2.37;0.97;;;9.50;35.00;;;;;;4994472;28;20611;-70
2023/11/01 06:55:09;;;;;;;2.00;0.90;;;9.60;34.60;;;;;;4995639;28;20239;-70
2023/11/01 06:57:34;;;;;;;2.67;0.97;;;9.70;33.30;;;;;;4995821;28;20518;-70
2023/11/01 07:00:00;;;;;;;3.60;1.43;;;9.70;31.70;;;;;;4995279;28;20206;-70
2023/11/01 07:02:26;;;;;;;3.87;1.40;;;9.80;31.70;;;;;;4995665;28;20212;-69
2023/11/01 07:04:52;;;;;;;2.53;1.07;;;9.90;31.60;;;;;;4994143;28;20249;-70
2023/11/01 07:07:17;;;;;;;2.93;1.23;;;9.90;31.40;;;;;;4995424;28;20665;-69
2023/11/01 07:09:43;;;;;;;6.13;1.70;;;9.90;31.30;;;;;;4993710;28;20184;-69
2023/11/01 07:12:08;;;;;;;4.43;1.80;;;10.00;29.90;;;;;;4995325;28;20605;-69
2023/11/01 07:14:34;;;;;;;1.90;1.00;;;10.10;29.40;;;;;;4993961;28;20220;-70
2023/11/01 07:16:59;;;;;;;4.37;1.13;;;10.10;28.90;;;;;;4995257;28;20196;-70
2023/11/01 07:19:25;;;;;;;2.90;1.23;;;10.10;29.20;;;;;;4995298;28;20265;-69
2023/11/01 07:21:51;;;;;;;3.30;1.47;;;10.10;28.90;;;;;;4994859;28;20264;-70
2023/11/01 07:24:16;;;;;;;2.40;1.40;;;10.10;28.70;;;;;;4993617;28;20195;-69
2023/11/01 07:26:42;;;;;;;2.93;1.27;;;10.20;28.60;;;;;;4995263;28;20411;-70
2023/11/01 07:29:08;;;;;;;3.00;1.70;;;10.20;28.40;;;;;;4995067;28;20201;-70
2023/11/01 07:31:33;;;;;;;2.83;1.17;;;10.30;27.40;;;;;;4994991;28;20217;-70
2023/11/01 07:33:59;;;;;;;4.93;1.17;;;10.30;27.00;;;;;;4996552;28;20177;-69
2023/11/01 07:36:27;;;;;;;3.00;1.10;;;10.40;26.80;;;;;;4996815;28;20212;-70
2023/11/01 07:38:53;;;;;;;2.70;1.33;;;10.50;26.90;;;;;;4995361;28;20252;-69
2023/11/01 07:41:19;;;;;;;3.90;1.40;;;10.50;26.00;;;;;;4993932;28;20474;-69
2023/11/01 07:43:44;;;;;;;1.90;1.00;;;10.60;25.70;;;;;;4995198;28;20655;-69
2023/11/01 07:46:11;;;;;;;4.70;2.20;;;10.70;25.30;;;;;;4995094;28;20260;-69
2023/11/01 07:48:36;;;;;;;4.17;1.73;;;10.80;25.40;;;;;;4995160;28;20187;-69
2023/11/01 07:51:07;;;;;;;3.50;1.13;;;10.90;23.90;;;;;;4994791;28;20926;-70
2023/11/01 07:53:34;;;;;;;2.00;1.00;;;10.90;23.20;;;;;;4994801;28;20665;-69
2023/11/01 07:56:00;;;;;;;4.03;1.03;;;11.00;22.80;;;;;;4993878;28;20463;-69
2023/11/01 07:58:26;;;;;;;2.10;1.20;;;11.00;22.50;;;;;;4994662;28;20434;-69
2023/11/01 08:00:52;;;;;;;4.00;1.57;;;11.10;21.80;;;;;;4994348;28;20580;-69
2023/11/01 08:03:18;;;;;;;2.60;1.00;;;11.20;21.50;;;;;;4994482;28;20470;-69
2023/11/01 08:05:44;;;;;;;3.20;1.27;;;11.20;22.00;;;;;;4994412;28;20172;-69
2023/11/01 08:08:09;;;;;;;2.07;0.90;;;11.30;20.50;;;;;;4994172;28;20932;-69
2023/11/01 08:10:35;;;;;;;2.17;0.90;;;11.40;19.00;;;;;;4993889;28;20225;-69
2023/11/01 08:13:00;;;;;;;3.10;1.23;;;11.50;18.70;;;;;;4994178;28;20691;-68
2023/11/01 08:15:26;;;;;;;2.50;1.10;;;11.60;17.90;;;;;;4994155;28;20248;-70
2023/11/01 08:17:52;;;;;;;2.97;1.70;;;11.70;17.50;;;;;;4994217;28;20193;-69
2023/11/01 08:20:18;;;;;;;2.10;1.10;;;11.70;17.30;;;;;;4993502;28;20698;-69
2023/11/01 08:22:44;;;;;;;2.43;1.13;;;;;;;;;;4993984;28;20420;-69
2023/11/01 08:25:10;;;;;;;2.20;0.80;;;;;;;;;;4994123;28;20186;-69
2023/11/01 08:27:36;;;;;;;1.80;0.77;;;;;;;;;;4993978;28;20523;-70
2023/11/01 08:30:02;;;;;;;2.20;1.17;;;;;;;;;;4993549;28;20436;-68
2023/11/01 08:32:27;;;;;;;2.87;1.10;;;12.20;16.00;;;;;;4993779;28;20426;-69
2023/11/01 08:34:55;;;;;;;2.37;1.13;;;;;;;;;;4993804;28;20463;-71
2023/11/01 08:37:22;;;;;;;4.70;1.10;;;;;;;;;;4993728;28;20520;-68
2023/11/01 08:39:48;;;;;;;2.47;1.00;;;;;;;;;;4993919;28;20433;-70
2023/11/01 08:42:14;;;;;;;3.50;1.10;;;;;;;;;;4993877;28;20409;-70
2023/11/01 08:44:40;;;;;;;2.73;1.00;;;;;;;;;;4993746;28;20449;-69
2023/11/01 08:47:06;;;;;;;5.87;1.80;;;;;;;;;;4993625;28;20419;-69
2023/11/01 08:49:32;;;;;;;3.20;1.40;;;;;;;;;;4993402;28;20412;-69
2023/11/01 08:51:58;;;;;;;2.43;1.33;;;;;;;;;;4993169;28;20471;-69
2023/11/01 08:54:26;;;;;;;1.70;0.80;;;;;;;;;;4993579;28;20979;-70
2023/11/01 08:56:54;;;;;;;10.10;1.40;;;;;;;;;;4992203;28;20495;-69
2023/11/01 08:59:20;;;;;;;2.23;1.17;;;;;;;;;;4993491;28;20931;-69
2023/11/01 09:01:46;;;;;;;1.83;0.83;;;;;;;;;;4993050;28;20482;-69
2023/11/01 09:04:13;;;;;;;2.00;1.20;;;;;;;;;;4993323;28;20423;-70
2023/11/01 09:06:39;;;;;;;1.90;1.00;;;;;;;;;;4993150;28;20419;-70
2023/11/01 09:09:06;;;;;;;2.60;1.03;;;;;;;;;;4992450;28;20414;-70
2023/11/01 09:11:32;;;;;;;2.33;1.03;;;;;;;;;;5007919;28;20459;-69
2023/11/01 09:13:58;;;;;;;4.60;1.13;;;;;;;;;;5008215;28;20427;-69
2023/11/01 09:16:25;;;;;;;2.27;0.97;;;;;;;;;;4993163;28;20621;-70
2023/11/01 09:18:52;;;;;;;2.40;1.00;;;;;;;;;;5007984;28;20412;-69
2023/11/01 09:21:19;;;;;;;2.30;1.00;;;;;;;;;;4992814;28;20432;-70
2023/11/01 09:23:45;;;;;;;2.10;1.10;;;;;;;;;;4993153;28;20423;-70
2023/11/01 09:26:14;;;;;;;2.30;1.00;;;;;;;;;;4993230;28;20416;-70
2023/11/01 09:28:39;;;;;;;3.83;1.27;;;13.90;11.80;;;;;;4992910;28;21003;-70
2023/11/01 09:31:05;;;;;;;2.37;0.90;;;;;;;;;;4992371;28;20475;-69
2023/11/01 09:33:31;;;;;;;2.70;1.30;;;;;;;;;;4992890;28;20273;-70
2023/11/01 09:35:57;;;;;;;3.70;0.90;;;;;;;;;;4992635;28;20506;-70
2023/11/01 09:38:23;;;;;;;4.07;1.23;;;;;;;;;;5007842;28;20834;-69
2023/11/01 09:40:50;;;;;;;1.90;1.00;;;;;;;;;;4992502;28;20438;-69
2023/11/01 09:43:18;;;;;;;3.73;1.20;;;;;;;;;;4992834;28;20448;-70
2023/11/01 09:45:44;;;;;;;2.70;1.30;;;;;;;;;;4992647;28;20466;-69
2023/11/01 09:48:10;;;;;;;2.50;1.40;;;;;;;;;;4992679;28;20420;-69
2023/11/01 09:50:37;;;;;;;3.50;2.00;;;;;;;;;;4992449;28;20801;-69
2023/11/01 09:53:04;;;;;;;4.40;2.40;;;;;;;;;;4992571;28;20426;-69
2023/11/01 09:55:30;;;;;;;2.80;1.50;;;;;;;;;;4991874;28;20863;-69
2023/11/01 09:57:56;;;;;;;2.57;1.37;;;;;;;;;;4991961;28;20492;-69
2023/11/01 10:00:23;;;;;;;2.87;1.10;;;;;;;;;;4991546;28;20542;-69
2023/11/01 10:02:49;;;;;;;2.10;1.10;;;;;;;;;;4991821;28;20415;-69
2023/11/01 10:05:14;;;;;;;2.30;1.10;;;15.50;7.40;;;;;;4991933;28;20440;-69
2023/11/01 10:07:40;;;;;;;2.40;1.30;;;;;;;;;;4990491;28;20836;-69
2023/11/01 10:10:07;;;;;;;2.10;1.33;;;;;;;;;;4991362;28;20709;-70
2023/11/01 10:12:33;;;;;;;2.70;2.10;;;;;;;;;;4991866;28;20416;-69
2023/11/01 10:14:59;;;;;;;3.20;1.33;;;;;;;;;;4991671;28;20459;-69
2023/11/01 10:17:25;;;;;;;2.77;1.27;;;;;;;;;;4991734;28;20971;-70
2023/11/01 10:19:51;;;;;;;2.83;1.57;;;15.90;6.90;;;;;;4993482;28;20498;-69
2023/11/01 10:22:17;;;;;;;3.70;1.50;;;;;;;;;;4995725;28;20419;-69
2023/11/01 10:24:43;;;;;;;2.30;1.77;;;;;;;;;;4995785;28;20181;-69
2023/11/01 10:27:10;;;;;;;2.53;1.73;;;;;;;;;;4995760;28;20510;-70
2023/11/01 10:29:46;;;;;;;2.10;1.43;;;;;;;;;;4995480;28;20427;-69
2023/11/01 10:32:13;;;;;;;2.00;1.27;;;;;;;;;;4995529;28;20466;-68
2023/11/01 10:34:39;;;;;;;2.17;1.07;;;;;;;;;;4995524;28;20561;-69
2023/11/01 10:37:05;;;;;;;2.23;1.10;;;15.40;7.30;;;;;;4995605;28;20515;-69
2023/11/01 10:39:35;;;;;;;2.63;1.20;;;;;;;;;;4995243;28;20465;-72
2023/11/01 10:42:03;;;;;;;4.07;1.10;;;;;;;;;;4995203;28;20837;-69
2023/11/01 10:44:29;;;;;;;2.00;1.47;;;;;;;;;;4995645;28;20917;-69
2023/11/01 10:46:55;;;;;;;3.00;1.30;;;;;;;;;;4995394;28;20416;-70
2023/11/01 10:49:21;;;;;;;2.10;1.33;;;;;;;;;;4995466;28;20919;-69
2023/11/01 10:51:48;;;;;;;4.77;1.40;;;;;;;;;;4994928;28;20435;-70
2023/11/01 10:54:14;;;;;;;4.10;1.43;;;;;;;;;;4995188;28;20629;-70
2023/11/01 10:56:41;;;;;;;1.90;1.20;;;;;;;;;;4995101;28;20492;-70
2023/11/01 10:59:23;;;;;;;2.13;1.30;;;;;;;;;;4995287;28;20455;-69
2023/11/01 11:02:08;;;;;;;1.90;1.20;;;;;;;;;;4994966;28;20431;-69
2023/11/01 11:04:40;;;;;;;1.93;1.33;;;;;;;;;;4995050;28;20443;-68
2023/11/01 11:07:24;;;;;;;1.80;1.10;;;;;;;;;;4995054;28;20411;-69
2023/11/01 11:10:10;;;;;;;3.50;1.87;;;;;;;;;;4994649;28;20558;-69
2023/11/01 11:12:36;;;;;;;2.20;1.50;;;;;;;;;;4994803;28;20489;-69
2023/11/01 11:15:04;;;;;;;3.67;1.50;;;;;;;;;;4994799;28;20459;-69
2023/11/01 11:17:30;;;;;;;2.23;1.50;;;;;;;;;;4994725;28;20412;-69
2023/11/01 11:20:05;;;;;;;1.80;1.23;;;;;;;;;;4994399;28;20701;-70
2023/11/01 11:22:50;;;;;;;2.00;1.30;;;;;;;;;;4994608;28;20415;-69
2023/11/01 11:25:34;;;;;;;2.73;1.93;;;;;;;;;;4994517;28;20415;-69
2023/11/01 11:28:02;;;;;;;2.43;1.50;;;;;;;;;;4994380;28;20411;-69
2023/11/01 11:30:46;;;;;;;2.00;1.30;;;;;;;;;;4993208;28;20440;-70
2023/11/01 11:33:13;;;;;;;1.70;1.40;;;;;;;;;;4994389;28;20440;-68
2023/11/01 11:35:39;;;;;;;2.03;1.50;;;;;;;;;;4994335;28;20470;-69
2023/11/01 11:38:25;;;;;;;1.97;1.30;;;;;;;;;;4994247;28;20416;-69
2023/11/01 11:41:10;;;;;;;3.60;1.63;;;;;;;;;;4986911;28;20454;-70
2023/11/01 11:43:55;;;;;;;2.60;1.50;;;;;;;;;;4994208;28;20421;-70
2023/11/01 11:46:31;;;;;;;2.83;1.50;;;;;;;;;;4994329;28;20436;-71
2023/11/01 11:48:58;;;;;;;1.80;1.60;;;;;;;;;;4993979;28;20452;-69
2023/11/01 11:51:24;;;;;;;2.20;1.80;;;;;;;;;;4993852;28;20547;-69
2023/11/01 11:53:50;;;;;;;1.67;1.30;;;;;;;;;;4994213;28;20488;-69
2023/11/01 11:56:17;;;;;;;2.00;1.80;;;;;;;;;;4993976;28;20483;-69
2023/11/01 11:58:43;;;;;;;2.10;1.80;;;;;;;;;;4994372;28;20764;-69
2023/11/01 12:01:22;;;;;;;2.47;1.83;;;;;;;;;;4993701;28;20423;-69
2023/11/01 12:03:48;;;;;;;2.00;1.47;;;;;;;;;;4994078;28;20412;-69
2023/11/01 12:06:14;;;;;;;2.27;1.70;;;;;;;;;;4993763;28;20470;-69
2023/11/01 12:08:40;;;;;;;3.10;2.30;;;;;;;;;;4993728;28;20904;-70
2023/11/01 12:11:07;;;;;;;3.30;1.80;;;;;;;;;;4993348;28;20510;-69
2023/11/01 12:13:44;;;;;;;2.20;1.63;;;;;;;;;;4993544;28;20412;-70
2023/11/01 12:16:10;;;;;;;1.70;1.40;;;;;;;;;;4993716;28;20511;-70
2023/11/01 12:18:36;;;;;;;1.80;1.50;;;;;;;;;;4993725;28;20882;-69
2023/11/01 12:21:12;;;;;;;3.00;1.33;;;;;;;;;;4993228;28;20428;-69
2023/11/01 12:23:47;;;;;;;2.20;1.53;;;;;;;;;;4993809;28;20408;-70
2023/11/01 12:26:13;;;;;;;2.10;1.67;;;16.00;1.00;;;;;;4993454;28;20450;-70
2023/11/01 12:28:38;;;;;;;3.60;2.57;;;16.00;1.00;;;;;;4993437;28;20444;-70
2023/11/01 12:31:14;;;;;;;3.60;2.30;;;16.00;1.00;;;;;;4991972;28;20208;-69
2023/11/01 12:33:40;;;;;;;2.30;2.00;;;15.90;1.00;;;;;;4993406;28;20191;-70
2023/11/01 12:36:06;;;;;;;2.30;1.57;;;15.80;1.00;;;;;;4993235;28;20811;-69
2023/11/01 12:38:35;;;;;;;2.30;1.30;;;15.90;1.00;;;;;;4993114;28;20180;-70
2023/11/01 12:41:02;;;;;;;1.80;1.40;;;16.00;1.00;;;;;;4992841;28;20428;-69
2023/11/01 12:43:27;;;;;;;2.63;1.60;;;16.20;1.00;;;;;;4992880;28;20507;-70
2023/11/01 12:45:54;;;;;;;2.23;1.70;;;16.30;1.00;;;;;;4993149;28;20585;-70
2023/11/01 12:48:20;;;;;;;2.27;1.83;;;16.40;1.00;;;;;;4993226;28;20188;-70
2023/11/01 12:50:46;;;;;;;1.60;1.30;;;16.40;1.00;;;;;;4992895;28;20531;-70
2023/11/01 12:53:11;;;;;;;3.53;1.53;;;16.50;1.00;;;;;;4993369;28;20471;-68
2023/11/01 12:55:37;;;;;;;1.97;1.70;;;16.50;1.00;;;;;;4992997;28;20251;-69
2023/11/01 12:58:06;;;;;;;3.00;1.70;;;16.30;1.00;;;;;;5008154;28;20253;-69
2023/11/01 13:00:32;;;;;;;4.30;2.80;;;16.30;1.00;;;;;;4992501;28;20221;-69
2023/11/01 13:02:59;;;;;;;3.13;2.30;;;16.20;1.00;;;;;;4992577;28;20498;-69
2023/11/01 13:05:25;;;;;;;2.20;2.00;;;16.30;1.00;;;;;;4992793;28;20598;-70
2023/11/01 13:07:55;;;;;;;3.13;1.73;;;16.20;1.00;;;;;;4992684;28;20455;-70
2023/11/01 13:10:21;;;;;;;4.80;2.17;;;16.10;1.00;;;;;;4992573;28;20228;-70
2023/11/01 13:12:47;;;;;;;3.73;2.00;;;15.90;1.00;;;;;;4992530;28;20416;-69
2023/11/01 13:15:12;;;;;;;2.80;1.77;;;15.90;1.00;;;;;;4992696;28;20301;-69
2023/11/01 13:17:38;;;;;;;3.10;1.70;;;15.80;1.00;;;;;;4992589;28;20494;-69
2023/11/01 13:20:04;;;;;;;1.90;1.50;;;15.70;1.00;;;;;;4992273;28;20193;-70